Arthur, Nevada
Current Conditions -  °F | °C
As of 10:55 AM on Sunday 23 Nov 2014 (Local Time) from KENV Reporting Station
Clear Clear  
Wind Chill:   Ceiling: Unl
Heat Index:   Visibility: 10mi
Dew Point: -7°   Wind: 14mph
Humidity: 39%   Direction: 310°NW
Pressure: 30.28"   Gusts: 21mph
Location:  41.0114°N, 114.57°W
Report Text: KENV 231855Z AUTO 31012G18KT 10SM CLR 06/M07 A3028 RMK AO1
Loading
Personal Weather Stations






























Interactive Weather Map New forecast layout! Learn more

10-Day Weather Forecast

Advertisements
Track Severe Weather on mobile